TFM - Tactical Decision Aid (Experimental) INFO Settings
ID: Runway Winds: CIG/VIS Threshold: METAR Board:

KOGB - Orangeburg Muni

Updated at: 0320 UTC 19 Jul 2018
Latest TAF at: 0240 UTC 19 Jul 2018

TAF Board

Time0253Z19/04Z19/05Z19/06Z19/07Z19/08Z19/09Z19/10Z19/11Z19/12Z19/13Z19/14Z19/15Z19/16Z
TypeOBSPRVLPRVLPRVLPRVLPRVLPRVLPRVLPRVLPRVLPRVLPRVLPRVLPRVL
VIS10>6>6>6>6>6>6>6>6>6>6>6>6>6
CIG100100100100100100777250250250250250
CoverBKNBKNBKNBKNBKNBKNBKNBKNBKNBKNBKNBKNBKNBKN
FltCatVFRVFRVFRVFRVFRVFRIFRIFRIFRVFRVFRVFRVFRVFR
WX----------------------------
WDirVRBVRBVRBVRBVRBVRBVRBVRBVRB9090909090
WSpd04444422255555
WGst----------------------------
TAF
KOGB 190240Z 1903/1924 VRB04KT P6SM SCT030 BKN100
  FM190900 VRB02KT P6SM BKN007 BKN250
  FM191200 09005KT P6SM SCT020 BKN250
  FM191900 10008KT P6SM VCTS BKN050CB


METAR
KOGB 190253Z AUTO 00000KT 10SM BKN100 26/23 A2993 RMK AO2 SLP133 T02610228 50012
KOGB 190153Z AUTO 00000KT 10SM SCT110 26/22 A2994 RMK AO2 LTG DSNT W SLP134 T02610222

TAF/METAR Board Legend

Potential Impact
  None Marginal Slight Moderate High
Visibility (sm) >5 3≤X≤5 2≤X<3 1≤X<2 <1
Ceiling (100 ft) >30 10≤X≤30 8≤X<10 3≤X<8 <3
Wind Speed (kt) <10 10≤X<20 20≤X<30 ≥30
Wind Gust (kt) <15 15≤X<25 25≤X<35 ≥35
Weather No Wx Reported VCTS -TS,-FZRA TS,FZRA +TS,+FZRA